Time;durP1;ratioP1;P1;durP2;ratioP2;P2;SDS_P1;SDS_P2;PMS_P1;PMS_P2;Temp;Humidity;BMP_temperature;BMP_pressure;BME280_temperature;BME280_humidity;BME280_pressure;Samples;Min_cycle;Max_cycle;Signal;HPM_P1;HPM_P2
2022/09/02 00:01:32;;;;;;;4.53;1.27;;;;;;;;;;5109392;28;20100;-75
2022/09/02 00:04:04;;;;;;;1.83;1.10;;;;;;;;;;5108085;28;20052;-75
2022/09/02 00:06:32;;;;;;;2.07;1.20;;;;;;;;;;5108842;28;20059;-76
2022/09/02 00:08:59;;;;;;;1.67;1.10;;;;;;;;;;5107959;28;20108;-76
2022/09/02 00:11:28;;;;;;;2.05;1.20;;;;;;;;;;5107053;28;20059;-75
2022/09/02 00:13:56;;;;;;;2.50;1.30;;;;;;;;;;5108311;28;20105;-76
2022/09/02 00:16:23;;;;;;;3.35;1.48;;;;;;;;;;5113415;28;20053;-76
2022/09/02 00:18:52;;;;;;;6.30;1.50;;;;;;;;;;5114246;28;20040;-76
2022/09/02 00:21:20;;;;;;;2.10;1.50;;;;;;;;;;5109775;28;20112;-75
2022/09/02 00:23:48;;;;;;;6.45;1.35;;;;;;;;;;5112725;28;20044;-76
2022/09/02 00:26:16;;;;;;;7.40;1.35;;;;;;;;;;5104967;28;20063;-76
2022/09/02 00:28:43;;;;;;;3.55;1.30;;;;;;;;;;5106206;28;20045;-76
2022/09/02 00:31:22;;;;;;;2.50;1.33;;;;;;;;;;5112553;28;20063;-76
2022/09/02 00:33:50;;;;;;;4.95;1.20;;;;;;;;;;5110314;28;20040;-76
2022/09/02 00:36:18;;;;;;;2.08;1.23;;;;;;;;;;5104840;28;20033;-74
2022/09/02 00:38:45;;;;;;;10.50;1.55;;;;;;;;;;5106153;28;20032;-75
2022/09/02 00:41:13;;;;;;;5.40;1.38;;;;;;;;;;5112401;28;20044;-76
2022/09/02 00:43:42;;;;;;;1.95;1.10;;;;;;;;;;5107335;28;20033;-76
2022/09/02 00:46:11;;;;;;;1.63;1.17;;;;;;;;;;5108894;28;20100;-76
2022/09/02 00:48:40;;;;;;;5.63;1.38;;;;;;;;;;5104772;28;20041;-76
2022/09/02 00:51:09;;;;;;;4.95;1.15;;;;;;;;;;5111331;28;20072;-75
2022/09/02 00:53:38;;;;;;;6.07;1.10;;;;;;;;;;5110878;28;20038;-75
2022/09/02 00:56:08;;;;;;;2.10;1.38;;;;;;;;;;5108649;28;20043;-76
2022/09/02 00:58:37;;;;;;;8.95;1.27;;;;;;;;;;5105366;28;20113;-75
2022/09/02 01:01:04;;;;;;;1.98;1.20;;;;;;;;;;5113024;28;20048;-75
2022/09/02 01:03:32;;;;;;;1.15;0.90;;;;;;;;;;5110827;28;20067;-75
2022/09/02 01:06:01;;;;;;;3.75;1.10;;;;;;;;;;5107308;28;20090;-74
2022/09/02 01:08:31;;;;;;;2.90;1.08;;;;;;;;;;5109658;28;20021;-76
2022/09/02 01:10:59;;;;;;;2.25;1.25;;;;;;;;;;5112892;28;20050;-76
2022/09/02 01:13:28;;;;;;;5.13;1.30;;;;;;;;;;5111550;28;20120;-75
2022/09/02 01:16:02;;;;;;;2.05;1.17;;;;;;;;;;5112038;28;20041;-75
2022/09/02 01:18:30;;;;;;;3.20;1.13;;;;;;;;;;5103164;28;20045;-76
2022/09/02 01:20:59;;;;;;;1.75;1.13;;;;;;;;;;5111243;28;20041;-75
2022/09/02 01:23:27;;;;;;;5.10;1.40;;;;;;;;;;5110811;28;20036;-74
2022/09/02 01:25:57;;;;;;;5.03;1.40;;;;;;;;;;5106565;28;20025;-74
2022/09/02 01:28:24;;;;;;;2.38;1.25;;;;;;;;;;5095223;28;20043;-75
2022/09/02 01:30:53;;;;;;;2.35;1.00;;;;;;;;;;5104769;28;20024;-75
2022/09/02 01:33:21;;;;;;;2.75;1.13;;;;;;;;;;5107105;28;20096;-75
2022/09/02 01:35:51;;;;;;;4.88;1.40;;;;;;;;;;5110664;28;20047;-75
2022/09/02 01:38:19;;;;;;;1.83;1.13;;;;;;;;;;5105565;28;20094;-76
2022/09/02 01:40:46;;;;;;;2.53;1.15;;;;;;;;;;5104893;28;20122;-76
2022/09/02 01:43:15;;;;;;;4.70;1.23;;;;;;;;;;5107957;28;20024;-75
2022/09/02 01:45:44;;;;;;;3.35;1.10;;;;;;;;;;5107149;28;20049;-75
2022/09/02 01:48:12;;;;;;;3.92;1.35;;;;;;;;;;5112598;28;20071;-75
2022/09/02 01:50:41;;;;;;;9.07;1.30;;;;;;;;;;5110634;28;20041;-76
2022/09/02 01:53:13;;;;;;;1.20;0.98;;;;;;;;;;5103099;28;20116;-75
2022/09/02 01:55:41;;;;;;;3.83;1.30;;;;;;;;;;5111461;28;20048;-75
2022/09/02 01:58:09;;;;;;;1.70;1.25;;;;;;;;;;5110769;28;20143;-75
2022/09/02 02:00:36;;;;;;;6.57;1.10;;;;;;;;;;5111629;28;20045;-74
2022/09/02 02:03:04;;;;;;;1.90;1.23;;;;;;;;;;5105196;28;20045;-75
2022/09/02 02:05:32;;;;;;;2.22;1.10;;;;;;;;;;5105303;28;20040;-74
2022/09/02 02:07:59;;;;;;;2.33;1.38;;;;;;;;;;5103092;28;20041;-75
2022/09/02 02:10:26;;;;;;;2.83;1.35;;;;;;;;;;5107217;28;20044;-75
2022/09/02 02:12:54;;;;;;;8.25;1.20;;;;;;;;;;5105521;28;20040;-74
2022/09/02 02:15:22;;;;;;;2.30;1.40;;;;;;;;;;5107882;28;20037;-74
2022/09/02 02:17:48;;;;;;;2.38;1.30;;;;;;;;;;5102976;28;20071;-75
2022/09/02 02:20:17;;;;;;;2.33;1.23;;;;;;;;;;5099048;28;20040;-74
2022/09/02 02:22:44;;;;;;;1.73;1.15;;;;;;;;;;5106103;28;20044;-75
2022/09/02 02:25:13;;;;;;;3.53;1.45;;;;;;;;;;5100966;28;20056;-75
2022/09/02 02:27:41;;;;;;;2.47;1.27;;;;;;;;;;5102857;28;20045;-73
2022/09/02 02:30:11;;;;;;;5.53;1.33;;;;;;;;;;5109449;28;20029;-75
2022/09/02 02:32:38;;;;;;;1.90;1.30;;;;;;;;;;5107394;28;20064;-75
2022/09/02 02:35:07;;;;;;;2.90;1.20;;;;;;;;;;5103667;28;20021;-74
2022/09/02 02:37:34;;;;;;;4.88;1.42;;;;;;;;;;5103173;28;20107;-75
2022/09/02 02:40:01;;;;;;;2.97;1.40;;;;;;;;;;5095757;28;20112;-73
2022/09/02 02:42:28;;;;;;;2.28;1.20;;;;;;;;;;5107237;28;20052;-75
2022/09/02 02:44:57;;;;;;;6.80;1.30;;;;;;;;;;5103036;28;20033;-76
2022/09/02 02:47:25;;;;;;;3.45;1.40;;;;;;;;;;5108243;28;20041;-75
2022/09/02 02:49:52;;;;;;;2.72;1.23;;;;;;;;;;5101549;28;20044;-75
2022/09/02 02:52:20;;;;;;;2.53;1.42;;;;;;;;;;5106623;28;20385;-75
2022/09/02 02:54:47;;;;;;;2.33;1.20;;;;;;;;;;5109751;28;20045;-75
2022/09/02 02:57:14;;;;;;;3.05;1.20;;;;;;;;;;5107513;28;20056;-75
2022/09/02 02:59:41;;;;;;;2.38;1.10;;;;;;;;;;5109431;28;20049;-74
2022/09/02 03:02:09;;;;;;;3.05;1.20;;;;;;;;;;5104597;28;20044;-76
2022/09/02 03:04:38;;;;;;;1.63;1.00;;;;;;;;;;5110691;28;20049;-74
2022/09/02 03:07:06;;;;;;;1.25;1.05;;;;;;;;;;5111232;28;20044;-75
2022/09/02 03:09:33;;;;;;;2.22;1.20;;;;;;;;;;5106107;28;20036;-76
2022/09/02 03:12:00;;;;;;;2.33;1.27;;;;;;;;;;5111721;28;20037;-75
2022/09/02 03:14:27;;;;;;;2.78;1.20;;;;;;;;;;5112812;28;20108;-75
2022/09/02 03:16:54;;;;;;;3.90;1.23;;;;;;;;;;5105130;28;20048;-74
2022/09/02 03:19:21;;;;;;;3.03;1.35;;;;;;;;;;5109758;28;20087;-75
2022/09/02 03:21:48;;;;;;;2.05;1.30;;;;;;;;;;5110365;28;20016;-75
2022/09/02 03:24:16;;;;;;;2.35;1.13;;;;;;;;;;5110720;28;20040;-74
2022/09/02 03:26:43;;;;;;;4.28;1.23;;;;;;;;;;5108460;28;20084;-74
2022/09/02 03:29:10;;;;;;;6.45;1.50;;;;;;;;;;5108822;28;20101;-75
2022/09/02 03:31:38;;;;;;;6.72;1.50;;;;;;;;;;5112884;28;20045;-74
2022/09/02 03:34:05;;;;;;;5.85;1.50;;;;;;;;;;5112303;28;20072;-74
2022/09/02 03:36:34;;;;;;;4.57;1.30;;;;;;;;;;5102396;28;20055;-74
2022/09/02 03:39:03;;;;;;;6.68;1.60;;;;;;;;;;5108934;28;20044;-75
2022/09/02 03:41:30;;;;;;;3.03;1.20;;;;;;;;;;5089766;28;20055;-75
2022/09/02 03:43:57;;;;;;;2.10;1.10;;;;;;;;;;5107484;28;20028;-75
2022/09/02 03:46:25;;;;;;;8.02;1.30;;;;;;;;;;5115080;28;20080;-76
2022/09/02 03:48:52;;;;;;;2.60;1.27;;;;;;;;;;5112653;28;20059;-75
2022/09/02 03:51:20;;;;;;;2.97;1.20;;;;;;;;;;5104585;28;20041;-76
2022/09/02 03:53:47;;;;;;;3.70;1.20;;;;;;;;;;5109430;28;20044;-75
2022/09/02 03:56:15;;;;;;;2.90;1.30;;;;;;;;;;5109173;28;20171;-74
2022/09/02 03:58:45;;;;;;;2.15;1.35;;;;;;;;;;5107489;28;20040;-76
2022/09/02 04:01:13;;;;;;;3.55;1.40;;;;;;;;;;5111601;28;20066;-75
2022/09/02 04:03:41;;;;;;;4.82;1.30;;;;;;;;;;5112517;28;20035;-75
2022/09/02 04:06:11;;;;;;;4.45;1.40;;;;;;;;;;5106931;28;20061;-75
2022/09/02 04:08:40;;;;;;;4.65;1.40;;;;;;;;;;5109494;28;20037;-75
2022/09/02 04:11:08;;;;;;;4.15;1.58;;;;;;;;;;5106032;28;20040;-75
2022/09/02 04:13:36;;;;;;;4.45;1.30;;;;;;;;;;5108425;28;20037;-75
2022/09/02 04:16:07;;;;;;;9.80;1.42;;;;;;;;;;5100038;28;20413;-75
2022/09/02 04:18:37;;;;;;;2.95;1.40;;;;;;;;;;5106635;28;20049;-75
2022/09/02 04:21:04;;;;;;;11.80;1.70;;;;;;;;;;5103609;28;20045;-75
2022/09/02 04:23:32;;;;;;;1.90;1.20;;;;;;;;;;5107502;28;20024;-75
2022/09/02 04:26:03;;;;;;;2.38;1.23;;;;;;;;;;5108452;28;20049;-76
2022/09/02 04:28:30;;;;;;;3.63;1.10;;;;;;;;;;5110998;28;20055;-75
2022/09/02 04:30:57;;;;;;;1.38;1.02;;;;;;;;;;5105261;28;20108;-75
2022/09/02 04:33:24;;;;;;;8.73;1.30;;;;;;;;;;5112285;28;20029;-74
2022/09/02 04:35:51;;;;;;;1.40;1.02;;;;;;;;;;5106932;28;20049;-74
2022/09/02 04:38:19;;;;;;;3.35;1.15;;;;;;;;;;5110638;28;20121;-75
2022/09/02 04:40:47;;;;;;;1.80;1.20;;;;;;;;;;5107089;28;20589;-75
2022/09/02 04:43:14;;;;;;;2.05;1.08;;;;;;;;;;5106121;28;20082;-76
2022/09/02 04:45:42;;;;;;;2.05;1.30;;;;;;;;;;5110528;28;20055;-74
2022/09/02 04:48:10;;;;;;;2.05;1.17;;;;;;;;;;5110123;28;20040;-75
2022/09/02 04:50:41;;;;;;;1.77;1.15;;;;;;;;;;5086975;28;20041;-75
2022/09/02 04:53:09;;;;;;;3.63;1.20;;;;;;;;;;5104221;28;20037;-75
2022/09/02 04:55:38;;;;;;;6.70;1.42;;;;;;;;;;5109357;28;20043;-75
2022/09/02 04:58:05;;;;;;;5.28;1.42;;;;;;;;;;5110833;28;20044;-74
2022/09/02 05:00:33;;;;;;;3.97;1.42;;;;;;;;;;5110499;28;20032;-76
2022/09/02 05:03:00;;;;;;;8.13;1.30;;;;;;;;;;5096532;28;20119;-76
2022/09/02 05:05:27;;;;;;;6.00;1.48;;;;;;;;;;5111507;28;20049;-76
2022/09/02 05:07:55;;;;;;;6.15;1.30;;;;;;;;;;5108158;28;20072;-75
2022/09/02 05:10:22;;;;;;;5.68;1.33;;;;;;;;;;5091261;28;20040;-74
2022/09/02 05:12:50;;;;;;;2.38;1.30;;;;;;;;;;5109857;28;20066;-75
2022/09/02 05:15:18;;;;;;;2.05;1.27;;;;;;;;;;5107349;28;20059;-75
2022/09/02 05:17:45;;;;;;;6.50;1.80;;;;;;;;;;5106726;28;20052;-74
2022/09/02 05:20:12;;;;;;;1.80;1.13;;;;;;;;;;5105849;28;20091;-76
2022/09/02 05:22:40;;;;;;;1.88;1.00;;;;;;;;;;5102646;28;20052;-75
2022/09/02 05:25:08;;;;;;;1.98;1.20;;;;;;;;;;5113691;28;20047;-74
2022/09/02 05:27:36;;;;;;;1.65;1.00;;;;;;;;;;5108249;28;20127;-75
2022/09/02 05:30:04;;;;;;;5.72;1.33;;;;;;;;;;5095872;28;20036;-75
2022/09/02 05:32:31;;;;;;;4.82;1.25;;;;;;;;;;5108486;28;20089;-75
2022/09/02 05:35:04;;;;;;;3.97;1.20;;;;;;;;;;5104519;28;20041;-76
2022/09/02 05:37:31;;;;;;;2.65;1.20;;;;;;;;;;5108793;28;20218;-75
2022/09/02 05:39:58;;;;;;;4.22;1.42;;;;;;;;;;5107540;28;20060;-75
2022/09/02 05:42:28;;;;;;;2.70;1.42;;;;;;;;;;5102555;28;20037;-75
2022/09/02 05:44:56;;;;;;;3.05;1.45;;;;;;;;;;5103865;28;20082;-76
2022/09/02 05:47:23;;;;;;;5.88;1.30;;;;;;;;;;5111270;28;20036;-75
2022/09/02 05:49:51;;;;;;;5.15;1.50;;;;;;;;;;5109246;28;20063;-75
2022/09/02 05:52:18;;;;;;;2.22;1.00;;;;;;;;;;5106184;28;20053;-74
2022/09/02 05:54:45;;;;;;;2.05;1.20;;;;;;;;;;5104227;28;20048;-76
2022/09/02 05:57:14;;;;;;;5.03;1.35;;;;;;;;;;5109147;28;20120;-74
2022/09/02 05:59:42;;;;;;;9.23;1.58;;;;;;;;;;5109037;28;20661;-76
2022/09/02 06:02:11;;;;;;;2.38;1.08;;;;;;;;;;5108186;28;20056;-74
2022/09/02 06:04:39;;;;;;;1.98;1.20;;;;;;;;;;5113370;28;20057;-75
2022/09/02 06:07:06;;;;;;;2.45;1.30;;;;;;;;;;5102319;28;20048;-76
2022/09/02 06:09:37;;;;;;;10.50;1.30;;;;;;;;;;5102594;28;20049;-75
2022/09/02 06:12:05;;;;;;;3.53;1.10;;;;;;;;;;5105419;28;20033;-75
2022/09/02 06:14:32;;;;;;;4.50;1.13;;;;;;;;;;5102445;28;20104;-75
2022/09/02 06:16:59;;;;;;;3.25;1.10;;;;;;;;;;5103858;28;20032;-75
2022/09/02 06:19:31;;;;;;;4.40;1.20;;;;;;;;;;5104294;28;20044;-76
2022/09/02 06:21:59;;;;;;;4.43;1.27;;;;;;;;;;5107758;28;20048;-76
2022/09/02 06:24:27;;;;;;;4.28;1.20;;;;;;;;;;5102643;28;20051;-76
2022/09/02 06:26:55;;;;;;;5.55;1.55;;;;;;;;;;5108747;28;20051;-74
2022/09/02 06:29:24;;;;;;;4.22;1.13;;;;;;;;;;5110268;28;20033;-76
2022/09/02 06:31:52;;;;;;;1.67;1.00;;;;;;;;;;5107843;28;20025;-75
2022/09/02 06:34:20;;;;;;;2.65;1.20;;;;;;;;;;5105631;28;20039;-74
2022/09/02 06:36:49;;;;;;;1.50;1.10;;;;;;;;;;5104313;28;20056;-75
2022/09/02 06:39:18;;;;;;;2.60;1.20;;;;;;;;;;5100610;28;20043;-75
2022/09/02 06:41:47;;;;;;;4.68;1.10;;;;;;;;;;5103945;28;20039;-74
2022/09/02 06:44:15;;;;;;;11.30;1.08;;;;;;;;;;5107955;28;20048;-76
2022/09/02 06:46:44;;;;;;;3.47;1.10;;;;;;;;;;5105184;28;20140;-74
2022/09/02 06:49:11;;;;;;;2.08;1.13;;;;;;;;;;5105111;28;20059;-75
2022/09/02 06:51:41;;;;;;;3.75;1.00;;;;;;;;;;5104435;28;20039;-75
2022/09/02 06:54:09;;;;;;;1.90;1.05;;;;;;;;;;5107351;28;20041;-75
2022/09/02 06:56:40;;;;;;;3.03;1.20;;;;;;;;;;5111420;28;20033;-75
2022/09/02 06:59:13;;;;;;;7.80;1.30;;;;;;;;;;5107241;28;20055;-76
2022/09/02 07:01:40;;;;;;;7.07;1.40;;;;;;;;;;5105148;28;20027;-75
2022/09/02 07:06:54;;;;;;;2.85;1.17;;;;;;;;;;5105554;28;20108;-75
2022/09/02 07:09:29;;;;;;;6.20;1.50;;;;;;;;;;5110335;28;20081;-75
2022/09/02 07:11:59;;;;;;;6.28;1.35;;;;;;;;;;5108747;28;20025;-75
2022/09/02 07:14:31;;;;;;;3.55;1.40;;;;;;;;;;5100580;28;20068;-76
2022/09/02 07:16:59;;;;;;;4.65;1.30;;;;;;;;;;5106724;28;20104;-75
2022/09/02 07:19:26;;;;;;;4.28;1.08;;;;;;;;;;5107619;28;20040;-76
2022/09/02 07:21:54;;;;;;;3.63;1.33;;;;;;;;;;5104389;28;20017;-75
2022/09/02 07:24:21;;;;;;;1.98;1.30;;;;;;;;;;5107730;28;20037;-75
2022/09/02 07:26:48;;;;;;;4.13;1.20;;;;;;;;;;5108002;28;20101;-75
2022/09/02 07:29:21;;;;;;;1.10;1.00;;;;;;;;;;5106007;28;20045;-76
2022/09/02 07:31:49;;;;;;;4.13;1.30;;;;;;;;;;5089648;28;20627;-76
2022/09/02 07:34:16;;;;;;;2.10;1.10;;;;;;;;;;5106857;28;20080;-76
2022/09/02 07:36:44;;;;;;;2.03;1.02;;;;;;;;;;5105897;28;20070;-75
2022/09/02 07:39:12;;;;;;;2.05;1.00;;;;;;;;;;5103292;28;20049;-75
2022/09/02 07:41:40;;;;;;;4.13;1.20;;;;;;;;;;5106781;28;20033;-76
2022/09/02 07:44:07;;;;;;;1.23;1.02;;;;;;;;;;5104444;28;20100;-75
2022/09/02 07:46:35;;;;;;;5.15;1.40;;;;;;;;;;5107929;28;20055;-76
2022/09/02 07:49:05;;;;;;;2.95;1.30;;;;;;;;;;5105925;28;20101;-75
2022/09/02 07:51:37;;;;;;;3.92;1.20;;;;;;;;;;5104841;28;20032;-76
2022/09/02 07:54:06;;;;;;;7.20;1.23;;;;;;;;;;5103948;28;20056;-76
2022/09/02 07:56:33;;;;;;;3.28;1.30;;;;;;;;;;5114714;28;20037;-76
2022/09/02 07:59:00;;;;;;;8.60;1.40;;;;;;;;;;5094100;28;20095;-75
2022/09/02 08:01:28;;;;;;;3.33;1.27;;;;;;;;;;5111422;28;20040;-75
2022/09/02 08:03:56;;;;;;;4.85;1.40;;;;;;;;;;5112040;28;20048;-74
2022/09/02 08:06:29;;;;;;;4.03;1.38;;;;;;;;;;5111761;28;20051;-75
2022/09/02 08:09:02;;;;;;;5.60;1.40;;;;;;;;;;5106984;28;20037;-75
2022/09/02 08:11:31;;;;;;;6.63;1.30;;;;;;;;;;5110396;28;20031;-74
2022/09/02 08:13:59;;;;;;;3.75;1.52;;;;;;;;;;5108510;28;20044;-74
2022/09/02 08:16:27;;;;;;;6.00;1.48;;;;;;;;;;5112905;28;20041;-76
2022/09/02 08:18:54;;;;;;;4.35;1.33;;;;;;;;;;5115426;28;20939;-75
2022/09/02 08:21:24;;;;;;;5.47;1.27;;;;;;;;;;5113817;28;20067;-75
2022/09/02 08:23:51;;;;;;;10.52;1.70;;;;;;;;;;5109074;28;20036;-75
2022/09/02 08:26:20;;;;;;;7.90;1.90;;;;;;;;;;5112062;28;20060;-74
2022/09/02 08:28:49;;;;;;;3.38;1.50;;;;;;;;;;5113364;28;20032;-75
2022/09/02 08:31:17;;;;;;;5.97;1.60;;;;;;;;;;5108707;28;20044;-75
2022/09/02 08:33:44;;;;;;;4.28;1.50;;;;;;;;;;5112621;28;20056;-74
2022/09/02 08:36:13;;;;;;;8.95;1.80;;;;;;;;;;5114183;28;20107;-74
2022/09/02 08:38:41;;;;;;;6.45;1.55;;;;;;;;;;5113814;28;20056;-74
2022/09/02 08:41:38;;;;;;;5.15;1.85;;;;;;;;;;5110502;28;20101;-74
2022/09/02 08:44:06;;;;;;;6.22;1.83;;;;;;;;;;5069411;28;20109;-75
2022/09/02 08:46:34;;;;;;;5.75;1.58;;;;;;;;;;5070533;28;20045;-77
2022/09/02 08:49:02;;;;;;;3.75;1.60;;;;;;;;;;5070744;28;20042;-76
2022/09/02 08:51:32;;;;;;;4.75;1.60;;;;;;;;;;5071412;28;20101;-76
2022/09/02 08:54:20;;;;;;;12.57;1.70;;;;;;;;;;5064834;28;20034;-76
2022/09/02 08:56:50;;;;;;;16.77;1.95;;;;;;;;;;5066756;28;20052;-74
2022/09/02 08:59:22;;;;;;;2.97;1.40;;;;;;;;;;5063738;28;20049;-75
2022/09/02 09:01:53;;;;;;;4.32;1.90;;;;;;;;;;5067429;28;20037;-76
2022/09/02 09:04:20;;;;;;;3.45;1.60;;;;;;;;;;5073058;28;20049;-76
2022/09/02 09:06:55;;;;;;;6.13;1.77;;;;;;;;;;5068770;28;20092;-75
2022/09/02 09:09:22;;;;;;;7.57;1.48;;;;;;;;;;5073292;28;20152;-76
2022/09/02 09:11:55;;;;;;;5.00;2.00;;;;;;;;;;5057151;28;20026;-75
2022/09/02 09:14:27;;;;;;;8.70;1.90;;;;;;;;;;5070074;28;20045;-75
2022/09/02 09:17:05;;;;;;;4.97;1.42;;;;;;;;;;5072354;28;20045;-76
2022/09/02 09:19:36;;;;;;;4.80;1.77;;;;;;;;;;5082546;28;20056;-76
2022/09/02 09:22:06;;;;;;;7.63;2.10;;;;;;;;;;5111553;28;20041;-75
2022/09/02 09:24:41;;;;;;;4.57;1.70;;;;;;;;;;5107152;28;20043;-75
2022/09/02 09:27:11;;;;;;;5.43;1.88;;;;;;;;;;5096242;28;20052;-76
2022/09/02 09:29:39;;;;;;;14.20;1.92;;;;;;;;;;5108819;28;20052;-76
2022/09/02 09:32:12;;;;;;;5.47;1.80;;;;;;;;;;5112668;28;20041;-75
2022/09/02 09:34:52;;;;;;;4.30;1.60;;;;;;;;;;5111756;28;20048;-75
2022/09/02 09:37:29;;;;;;;6.15;1.83;;;;;;;;;;5109755;28;20043;-76
2022/09/02 09:40:20;;;;;;;3.95;1.80;;;;;;;;;;5111795;28;20055;-75
2022/09/02 09:43:09;;;;;;;4.30;1.60;;;;;;;;;;5108721;28;20021;-75
2022/09/02 09:45:44;;;;;;;6.50;2.00;;;;;;;;;;5097611;28;20043;-75
2022/09/02 09:48:14;;;;;;;5.03;1.88;;;;;;;;;;5106893;28;20567;-74
2022/09/02 09:50:45;;;;;;;9.15;1.80;;;;;;;;;;5097019;28;20100;-75
2022/09/02 09:53:17;;;;;;;2.95;1.60;;;;;;;;;;5105365;28;20041;-74
2022/09/02 09:55:44;;;;;;;;;;;;;;;;;;5102780;28;20049;-74
2022/09/02 09:58:12;;;;;;;8.77;1.88;;;;;;;;;;5099554;28;45116;-75
2022/09/02 10:00:40;;;;;;;4.53;1.85;;;;;;;;;;5102136;28;20048;-73
2022/09/02 10:03:07;;;;;;;7.88;2.10;;;;;;;;;;5105967;28;20025;-74
2022/09/02 10:05:39;;;;;;;5.70;1.60;;;;;;;;;;5093058;28;20932;-73
2022/09/02 10:08:16;;;;;;;9.93;1.73;;;;;;;;;;5103765;28;20051;-75
2022/09/02 10:10:55;;;;;;;9.10;2.10;;;;;;;;;;5102468;28;20041;-74
2022/09/02 10:13:24;;;;;;;7.45;1.90;;;;;;;;;;5107872;28;20084;-73
2022/09/02 10:16:00;;;;;;;5.45;2.20;;;;;;;;;;5105263;28;20048;-75
2022/09/02 10:18:46;;;;;;;5.97;2.00;;;;;;;;;;5102004;28;20893;-73
2022/09/02 10:21:21;;;;;;;9.93;2.40;;;;;;;;;;5107226;28;20111;-75
2022/09/02 10:24:12;;;;;;;6.68;1.70;;;;;;;;;;5108656;28;20009;-75
2022/09/02 10:26:42;;;;;;;8.82;2.00;;;;;;;;;;5111669;28;20058;-75
2022/09/02 10:29:24;;;;;;;4.80;1.83;;;;;;;;;;5107988;28;20049;-75
2022/09/02 10:31:52;;;;;;;20.50;2.05;;;;;;;;;;5112531;28;20040;-76
2022/09/02 10:34:25;;;;;;;8.07;1.80;;;;;;;;;;5111169;28;20012;-75
2022/09/02 10:37:07;;;;;;;3.50;1.70;;;;;;;;;;5110624;28;20036;-75
2022/09/02 10:39:53;;;;;;;6.57;1.83;;;;;;;;;;5104877;28;20036;-76
2022/09/02 10:42:27;;;;;;;3.30;2.10;;;;;;;;;;5105771;28;20083;-75
2022/09/02 10:44:54;;;;;;;11.80;2.05;;;;;;;;;;5109685;28;20044;-75
2022/09/02 10:47:34;;;;;;;4.55;2.00;;;;;;;;;;5105533;28;20121;-74
2022/09/02 10:50:20;;;;;;;6.68;1.90;;;;;;;;;;5103621;28;20029;-75
2022/09/02 10:53:00;;;;;;;12.13;2.03;;;;;;;;;;5101586;28;20083;-74
2022/09/02 10:55:36;;;;;;;;;;;;;;;;;;5108133;28;20039;-75
2022/09/02 10:58:06;;;;;;;4.60;1.77;;;;;;;;;;5105116;28;44463;-73
2022/09/02 11:00:37;;;;;;;4.55;1.70;;;;;;;;;;5102760;28;20089;-73
2022/09/02 11:03:07;;;;;;;3.65;1.77;;;;;;;;;;5108833;28;20078;-74
2022/09/02 11:05:38;;;;;;;5.55;1.75;;;;;;;;;;5107223;28;20021;-75
2022/09/02 11:08:08;;;;;;;5.00;1.90;;;;;;;;;;5105218;28;20811;-75
2022/09/02 11:10:41;;;;;;;5.28;1.75;;;;;;;;;;5105891;28;20143;-75
2022/09/02 11:13:08;;;;;;;;;;;;;;;;;;5095192;28;20052;-75
2022/09/02 11:15:39;;;;;;;4.00;1.55;;;;;;;;;;5092373;28;44741;-75
2022/09/02 11:18:18;;;;;;;3.80;1.63;;;;;;;;;;5090944;28;20048;-73
2022/09/02 11:20:45;;;;;;;3.05;1.60;;;;;;;;;;5092005;28;20137;-74
2022/09/02 11:23:24;;;;;;;4.93;2.15;;;;;;;;;;5087043;28;20037;-74
2022/09/02 11:25:55;;;;;;;5.38;1.70;;;;;;;;;;5089627;28;20049;-73
2022/09/02 11:28:42;;;;;;;5.45;1.60;;;;;;;;;;5107184;28;20062;-73
2022/09/02 11:31:14;;;;;;;2.53;1.67;;;;;;;;;;5105899;28;20781;-75
2022/09/02 11:34:02;;;;;;;6.55;2.75;;;;;;;;;;5100066;28;20114;-73
2022/09/02 11:36:30;;;;;;;2.70;1.58;;;;;;;;;;5094969;28;20056;-72
2022/09/02 11:39:02;;;;;;;4.90;1.58;;;;;;;;;;5090936;28;20168;-73
2022/09/02 11:41:38;;;;;;;5.43;1.50;;;;;;;;;;5099057;28;20048;-74
2022/09/02 11:44:05;;;;;;;5.30;1.80;;;;;;;;;;5087577;28;20043;-74
2022/09/02 11:46:35;;;;;;;3.60;1.60;;;;;;;;;;5097928;28;20063;-74
2022/09/02 11:49:18;;;;;;;7.80;1.70;;;;;;;;;;5096621;28;20869;-72
2022/09/02 11:51:45;;;;;;;4.65;1.70;;;;;;;;;;5098272;28;20076;-72
2022/09/02 11:54:15;;;;;;;9.05;1.85;;;;;;;;;;5091316;28;20048;-73
2022/09/02 11:56:48;;;;;;;4.53;1.70;;;;;;;;;;5091123;28;20062;-74
2022/09/02 11:59:16;;;;;;;;;;;;;;;;;;5095967;28;20107;-73
2022/09/02 12:01:50;;;;;;;5.32;1.65;;;;;;;;;;5084545;28;43344;-74
2022/09/02 12:04:19;;;;;;;2.83;1.63;;;;;;;;;;5092708;28;20059;-75
2022/09/02 12:07:10;;;;;;;8.07;1.70;;;;;;;;;;5094170;28;20032;-74
2022/09/02 12:09:45;;;;;;;8.25;1.50;;;;;;;;;;5095625;28;20051;-74
2022/09/02 12:12:33;;;;;;;7.70;1.70;;;;;;;;;;5091581;28;20056;-74
2022/09/02 12:15:02;;;;;;;4.00;1.50;;;;;;;;;;5095276;28;20048;-74
2022/09/02 12:17:36;;;;;;;7.43;1.67;;;;;;;;;;5090280;28;20755;-74
2022/09/02 12:20:06;;;;;;;7.63;1.77;;;;;;;;;;5092970;28;20052;-73
2022/09/02 12:22:38;;;;;;;3.28;1.42;;;;;;;;;;5089840;28;20045;-72
2022/09/02 12:25:25;;;;;;;2.70;1.60;;;;;;;;;;5098114;28;20053;-74
2022/09/02 12:28:14;;;;;;;4.63;1.70;;;;;;;;;;5097168;28;20033;-72
2022/09/02 12:31:00;;;;;;;1.98;1.30;;;;;;;;;;5094764;28;20510;-73
2022/09/02 12:33:31;;;;;;;3.88;1.50;;;;;;;;;;5092881;28;20140;-72
2022/09/02 12:35:59;;;;;;;2.70;1.60;;;;;;;;;;5092222;28;20048;-73
2022/09/02 12:38:26;;;;;;;2.53;1.50;;;;;;;;;;5091395;28;20060;-72
2022/09/02 12:40:56;;;;;;;3.45;1.63;;;;;;;;;;5099197;28;20040;-73
2022/09/02 12:43:25;;;;;;;3.03;1.55;;;;;;;;;;5099577;28;20059;-73
2022/09/02 12:45:58;;;;;;;4.85;1.73;;;;;;;;;;5095667;28;20108;-72
2022/09/02 12:48:34;;;;;;;4.95;1.95;;;;;;;;;;5091518;28;20101;-73
2022/09/02 12:51:05;;;;;;;8.85;1.60;;;;;;;;;;5100604;28;20044;-75
2022/09/02 12:53:37;;;;;;;3.00;1.70;;;;;;;;;;5093098;28;20048;-73
2022/09/02 12:56:22;;;;;;;3.13;1.52;;;;;;;;;;5101906;28;20044;-74
2022/09/02 12:58:53;;;;;;;3.97;1.70;;;;;;;;;;5085918;28;20033;-73
2022/09/02 13:01:29;;;;;;;5.57;1.80;;;;;;;;;;5098944;28;20045;-73
2022/09/02 13:04:11;;;;;;;7.93;1.63;;;;;;;;;;5101652;28;20095;-73
2022/09/02 13:06:53;;;;;;;4.10;1.75;;;;;;;;;;5094269;28;20068;-74
2022/09/02 13:09:28;;;;;;;8.93;1.92;;;;;;;;;;5091684;28;20032;-74
2022/09/02 13:12:16;;;;;;;3.55;1.90;;;;;;;;;;5095917;28;20052;-72
2022/09/02 13:14:49;;;;;;;4.75;1.83;;;;;;;;;;5097424;28;20076;-72
2022/09/02 13:17:22;;;;;;;3.42;1.70;;;;;;;;;;5097843;28;20033;-74
2022/09/02 13:20:08;;;;;;;4.57;1.77;;;;;;;;;;5094343;28;20099;-73
2022/09/02 13:22:38;;;;;;;3.75;1.90;;;;;;;;;;5098800;28;20048;-73
2022/09/02 13:25:22;;;;;;;8.10;1.75;;;;;;;;;;5101983;28;20056;-75
2022/09/02 13:28:13;;;;;;;2.95;1.85;;;;;;;;;;5109042;28;20040;-73
2022/09/02 13:30:40;;;;;;;4.57;1.50;;;;;;;;;;5093036;28;20139;-74
2022/09/02 13:33:11;;;;;;;3.58;1.70;;;;;;;;;;5098595;28;20051;-75
2022/09/02 13:35:41;;;;;;;4.20;1.80;;;;;;;;;;5096347;28;20045;-73
2022/09/02 13:38:12;;;;;;;4.72;1.70;;;;;;;;;;5094797;28;20067;-73
2022/09/02 13:40:40;;;;;;;3.05;1.60;;;;;;;;;;5093294;28;20039;-73
2022/09/02 13:43:12;;;;;;;3.97;1.67;;;;;;;;;;5097956;28;20044;-72
2022/09/02 13:45:42;;;;;;;5.72;1.63;;;;;;;;;;5078559;28;20060;-72
2022/09/02 13:48:13;;;;;;;9.25;1.60;;;;;;;;;;5099703;28;20049;-73
2022/09/02 13:50:48;;;;;;;3.20;1.60;;;;;;;;;;5093900;28;20083;-75
2022/09/02 13:53:31;;;;;;;3.40;1.90;;;;;;;;;;5092110;28;20076;-72
2022/09/02 13:56:23;;;;;;;2.75;1.80;;;;;;;;;;5093897;28;20051;-73
2022/09/02 13:58:52;;;;;;;2.28;1.67;;;;;;;;;;5082569;28;20041;-73
2022/09/02 14:01:24;;;;;;;2.10;1.52;;;;;;;;;;5096227;28;20044;-73
2022/09/02 14:03:52;;;;;;;3.92;1.50;;;;;;;;;;5095319;28;20049;-75
2022/09/02 14:06:24;;;;;;;3.03;1.50;;;;;;;;;;5097377;28;20049;-73
2022/09/02 14:08:54;;;;;;;8.45;1.77;;;;;;;;;;5094539;28;20033;-73
2022/09/02 14:11:21;;;;;;;3.85;1.58;;;;;;;;;;5102177;28;20036;-72
2022/09/02 14:13:49;;;;;;;4.05;1.70;;;;;;;;;;5083164;28;20073;-74
2022/09/02 14:16:24;;;;;;;5.30;1.60;;;;;;;;;;5098989;28;20052;-73
2022/09/02 14:19:06;;;;;;;5.35;1.85;;;;;;;;;;5096301;28;20040;-73
2022/09/02 14:21:34;;;;;;;5.95;1.58;;;;;;;;;;5096466;28;20180;-74
2022/09/02 14:24:01;;;;;;;2.92;1.70;;;;;;;;;;5097520;28;20044;-73
2022/09/02 14:26:36;;;;;;;2.47;1.70;;;;;;;;;;5100743;28;20059;-72
2022/09/02 14:29:07;;;;;;;7.68;1.70;;;;;;;;;;5100126;28;20083;-75
2022/09/02 14:31:36;;;;;;;3.75;1.75;;;;;;;;;;5101777;28;20055;-73
2022/09/02 14:34:05;;;;;;;3.45;1.80;;;;;;;;;;5098106;28;20938;-74
2022/09/02 14:36:36;;;;;;;3.20;1.42;;;;;;;;;;5099603;28;20122;-74
2022/09/02 14:39:14;;;;;;;3.08;1.60;;;;;;;;;;5095222;28;20057;-74
2022/09/02 14:41:45;;;;;;;3.45;1.58;;;;;;;;;;5098253;28;20045;-73
2022/09/02 14:44:15;;;;;;;3.15;1.63;;;;;;;;;;5096031;28;20055;-73
2022/09/02 14:46:56;;;;;;;12.98;2.15;;;;;;;;;;5095518;28;20060;-73
2022/09/02 14:49:26;;;;;;;4.78;1.83;;;;;;;;;;5098564;28;20037;-74
2022/09/02 14:51:54;;;;;;;1.98;1.60;;;;;;;;;;5094039;28;20049;-72
2022/09/02 14:54:37;;;;;;;3.60;1.95;;;;;;;;;;5095279;28;20048;-73
2022/09/02 14:57:04;;;;;;;3.58;1.90;;;;;;;;;;5098102;28;20041;-73
2022/09/02 14:59:32;;;;;;;5.97;1.90;;;;;;;;;;5095909;28;20053;-72
2022/09/02 15:01:59;;;;;;;3.50;1.80;;;;;;;;;;5103891;28;20718;-73
2022/09/02 15:04:27;;;;;;;4.68;1.90;;;;;;;;;;5103286;28;20049;-75
2022/09/02 15:06:55;;;;;;;5.43;1.85;;;;;;;;;;5100308;28;20108;-73